sensor_id;sensor_type;location;lat;lon;timestamp;P1;durP1;ratioP1;P2;durP2;ratioP2
39486;SDS011;25173;50.430;18.926;2023-08-06T00:02:45;27.80;;;15.40;;
39486;SDS011;25173;50.430;18.926;2023-08-06T00:05:45;27.83;;;17.00;;
39486;SDS011;25173;50.430;18.926;2023-08-06T00:08:46;24.13;;;15.55;;
39486;SDS011;25173;50.430;18.926;2023-08-06T00:11:46;31.45;;;15.82;;
39486;SDS011;25173;50.430;18.926;2023-08-06T00:14:50;28.33;;;15.10;;
39486;SDS011;25173;50.430;18.926;2023-08-06T00:17:51;23.27;;;13.82;;
39486;SDS011;25173;50.430;18.926;2023-08-06T00:20:52;20.67;;;13.80;;
39486;SDS011;25173;50.430;18.926;2023-08-06T00:23:52;21.33;;;13.80;;
39486;SDS011;25173;50.430;18.926;2023-08-06T00:26:53;20.38;;;12.48;;
39486;SDS011;25173;50.430;18.926;2023-08-06T00:29:54;19.85;;;12.75;;
39486;SDS011;25173;50.430;18.926;2023-08-06T00:32:54;18.08;;;11.98;;
39486;SDS011;25173;50.430;18.926;2023-08-06T00:35:55;23.95;;;12.20;;
39486;SDS011;25173;50.430;18.926;2023-08-06T00:38:56;19.27;;;11.35;;
39486;SDS011;25173;50.430;18.926;2023-08-06T00:41:57;19.70;;;11.68;;
39486;SDS011;25173;50.430;18.926;2023-08-06T00:44:58;19.33;;;11.45;;
39486;SDS011;25173;50.430;18.926;2023-08-06T00:47:59;18.60;;;11.75;;
39486;SDS011;25173;50.430;18.926;2023-08-06T00:51:00;19.52;;;12.38;;
39486;SDS011;25173;50.430;18.926;2023-08-06T00:54:01;19.15;;;11.55;;
39486;SDS011;25173;50.430;18.926;2023-08-06T00:57:02;24.30;;;11.18;;
39486;SDS011;25173;50.430;18.926;2023-08-06T01:00:05;20.83;;;11.73;;
39486;SDS011;25173;50.430;18.926;2023-08-06T01:03:06;15.05;;;11.38;;
39486;SDS011;25173;50.430;18.926;2023-08-06T01:06:07;18.83;;;12.57;;
39486;SDS011;25173;50.430;18.926;2023-08-06T01:12:37;21.98;;;11.40;;
39486;SDS011;25173;50.430;18.926;2023-08-06T01:15:49;17.30;;;11.18;;
39486;SDS011;25173;50.430;18.926;2023-08-06T01:18:55;20.92;;;11.25;;
39486;SDS011;25173;50.430;18.926;2023-08-06T01:21:58;15.18;;;11.35;;
39486;SDS011;25173;50.430;18.926;2023-08-06T01:24:58;27.38;;;12.45;;
39486;SDS011;25173;50.430;18.926;2023-08-06T01:28:02;17.83;;;12.27;;
39486;SDS011;25173;50.430;18.926;2023-08-06T01:31:10;15.55;;;11.15;;
39486;SDS011;25173;50.430;18.926;2023-08-06T01:34:28;14.38;;;10.38;;
39486;SDS011;25173;50.430;18.926;2023-08-06T01:37:31;11.70;;;9.68;;
39486;SDS011;25173;50.430;18.926;2023-08-06T01:40:32;13.52;;;10.27;;
39486;SDS011;25173;50.430;18.926;2023-08-06T01:43:33;15.75;;;10.05;;
39486;SDS011;25173;50.430;18.926;2023-08-06T01:46:33;14.65;;;9.75;;
39486;SDS011;25173;50.430;18.926;2023-08-06T01:49:34;14.55;;;10.23;;
39486;SDS011;25173;50.430;18.926;2023-08-06T01:52:34;13.80;;;9.23;;
39486;SDS011;25173;50.430;18.926;2023-08-06T01:55:35;15.15;;;9.85;;
39486;SDS011;25173;50.430;18.926;2023-08-06T01:58:36;12.60;;;9.88;;
39486;SDS011;25173;50.430;18.926;2023-08-06T02:01:36;14.30;;;10.27;;
39486;SDS011;25173;50.430;18.926;2023-08-06T02:04:37;11.10;;;8.82;;
39486;SDS011;25173;50.430;18.926;2023-08-06T02:07:37;12.65;;;9.35;;
39486;SDS011;25173;50.430;18.926;2023-08-06T02:10:39;13.35;;;8.85;;
39486;SDS011;25173;50.430;18.926;2023-08-06T02:13:41;11.05;;;8.73;;
39486;SDS011;25173;50.430;18.926;2023-08-06T02:16:42;11.55;;;7.53;;
39486;SDS011;25173;50.430;18.926;2023-08-06T02:19:42;9.15;;;7.25;;
39486;SDS011;25173;50.430;18.926;2023-08-06T02:22:43;10.23;;;7.90;;
39486;SDS011;25173;50.430;18.926;2023-08-06T02:25:44;10.00;;;7.13;;
39486;SDS011;25173;50.430;18.926;2023-08-06T02:28:44;9.98;;;7.38;;
39486;SDS011;25173;50.430;18.926;2023-08-06T02:31:47;9.52;;;6.80;;
39486;SDS011;25173;50.430;18.926;2023-08-06T02:34:47;8.10;;;7.07;;
39486;SDS011;25173;50.430;18.926;2023-08-06T02:37:48;7.68;;;6.43;;
39486;SDS011;25173;50.430;18.926;2023-08-06T02:40:48;10.52;;;6.80;;
39486;SDS011;25173;50.430;18.926;2023-08-06T02:43:50;9.23;;;6.55;;
39486;SDS011;25173;50.430;18.926;2023-08-06T02:46:51;6.80;;;6.00;;
39486;SDS011;25173;50.430;18.926;2023-08-06T02:49:53;6.43;;;5.18;;
39486;SDS011;25173;50.430;18.926;2023-08-06T02:52:54;7.35;;;5.15;;
39486;SDS011;25173;50.430;18.926;2023-08-06T02:55:55;7.07;;;4.90;;
39486;SDS011;25173;50.430;18.926;2023-08-06T02:59:01;6.65;;;4.60;;
39486;SDS011;25173;50.430;18.926;2023-08-06T03:02:15;5.00;;;4.55;;
39486;SDS011;25173;50.430;18.926;2023-08-06T03:05:28;6.13;;;4.43;;
39486;SDS011;25173;50.430;18.926;2023-08-06T03:08:29;5.65;;;5.13;;
39486;SDS011;25173;50.430;18.926;2023-08-06T03:11:30;4.63;;;4.22;;
39486;SDS011;25173;50.430;18.926;2023-08-06T03:14:36;5.32;;;4.82;;
39486;SDS011;25173;50.430;18.926;2023-08-06T03:17:39;5.72;;;4.65;;
39486;SDS011;25173;50.430;18.926;2023-08-06T03:20:42;6.70;;;5.10;;
39486;SDS011;25173;50.430;18.926;2023-08-06T03:23:42;5.38;;;4.88;;
39486;SDS011;25173;50.430;18.926;2023-08-06T03:26:43;7.18;;;5.07;;
39486;SDS011;25173;50.430;18.926;2023-08-06T03:29:48;5.20;;;4.70;;
39486;SDS011;25173;50.430;18.926;2023-08-06T03:32:49;7.18;;;4.88;;
39486;SDS011;25173;50.430;18.926;2023-08-06T03:35:53;5.75;;;5.25;;
39486;SDS011;25173;50.430;18.926;2023-08-06T03:38:54;7.57;;;5.30;;
39486;SDS011;25173;50.430;18.926;2023-08-06T03:41:55;5.82;;;4.93;;
39486;SDS011;25173;50.430;18.926;2023-08-06T03:44:56;5.82;;;5.32;;
39486;SDS011;25173;50.430;18.926;2023-08-06T03:47:57;6.72;;;5.03;;
39486;SDS011;25173;50.430;18.926;2023-08-06T03:50:57;11.05;;;5.45;;
39486;SDS011;25173;50.430;18.926;2023-08-06T03:54:02;6.47;;;5.05;;
39486;SDS011;25173;50.430;18.926;2023-08-06T03:57:07;6.47;;;5.68;;
39486;SDS011;25173;50.430;18.926;2023-08-06T04:00:07;5.63;;;4.78;;
39486;SDS011;25173;50.430;18.926;2023-08-06T04:03:15;5.03;;;4.63;;
39486;SDS011;25173;50.430;18.926;2023-08-06T04:06:16;7.65;;;5.63;;
39486;SDS011;25173;50.430;18.926;2023-08-06T04:09:17;6.90;;;5.35;;
39486;SDS011;25173;50.430;18.926;2023-08-06T04:12:17;8.75;;;6.35;;
39486;SDS011;25173;50.430;18.926;2023-08-06T04:15:18;8.98;;;6.40;;
39486;SDS011;25173;50.430;18.926;2023-08-06T04:18:19;8.20;;;6.43;;
39486;SDS011;25173;50.430;18.926;2023-08-06T04:21:19;8.90;;;7.50;;
39486;SDS011;25173;50.430;18.926;2023-08-06T04:24:21;10.80;;;8.15;;
39486;SDS011;25173;50.430;18.926;2023-08-06T04:27:21;13.75;;;8.85;;
39486;SDS011;25173;50.430;18.926;2023-08-06T04:30:23;15.88;;;10.95;;
39486;SDS011;25173;50.430;18.926;2023-08-06T04:33:23;16.85;;;12.68;;
39486;SDS011;25173;50.430;18.926;2023-08-06T04:36:25;15.65;;;12.05;;
39486;SDS011;25173;50.430;18.926;2023-08-06T04:39:25;12.85;;;11.35;;
39486;SDS011;25173;50.430;18.926;2023-08-06T04:42:26;22.95;;;15.23;;
39486;SDS011;25173;50.430;18.926;2023-08-06T04:45:27;24.95;;;14.68;;
39486;SDS011;25173;50.430;18.926;2023-08-06T04:48:28;22.65;;;15.55;;
39486;SDS011;25173;50.430;18.926;2023-08-06T04:51:28;22.70;;;15.85;;
39486;SDS011;25173;50.430;18.926;2023-08-06T04:54:29;25.48;;;16.48;;
39486;SDS011;25173;50.430;18.926;2023-08-06T04:57:29;24.42;;;16.35;;
39486;SDS011;25173;50.430;18.926;2023-08-06T05:00:30;27.50;;;18.50;;
39486;SDS011;25173;50.430;18.926;2023-08-06T05:03:31;28.15;;;17.98;;
39486;SDS011;25173;50.430;18.926;2023-08-06T05:06:31;34.13;;;20.13;;
39486;SDS011;25173;50.430;18.926;2023-08-06T05:09:32;27.90;;;17.58;;
39486;SDS011;25173;50.430;18.926;2023-08-06T05:12:33;30.70;;;20.02;;
39486;SDS011;25173;50.430;18.926;2023-08-06T05:15:33;34.55;;;20.35;;
39486;SDS011;25173;50.430;18.926;2023-08-06T05:18:34;39.95;;;22.85;;
39486;SDS011;25173;50.430;18.926;2023-08-06T05:21:35;37.15;;;24.90;;
39486;SDS011;25173;50.430;18.926;2023-08-06T05:24:35;32.08;;;22.08;;
39486;SDS011;25173;50.430;18.926;2023-08-06T05:27:36;36.72;;;22.27;;
39486;SDS011;25173;50.430;18.926;2023-08-06T05:30:40;38.08;;;23.27;;
39486;SDS011;25173;50.430;18.926;2023-08-06T05:33:41;31.77;;;21.80;;
39486;SDS011;25173;50.430;18.926;2023-08-06T05:36:41;32.95;;;21.42;;
39486;SDS011;25173;50.430;18.926;2023-08-06T05:39:42;44.17;;;19.52;;
39486;SDS011;25173;50.430;18.926;2023-08-06T05:42:42;58.25;;;14.57;;
39486;SDS011;25173;50.430;18.926;2023-08-06T05:45:44;40.80;;;13.55;;
39486;SDS011;25173;50.430;18.926;2023-08-06T05:48:46;48.30;;;12.13;;
39486;SDS011;25173;50.430;18.926;2023-08-06T05:51:47;22.08;;;10.00;;
39486;SDS011;25173;50.430;18.926;2023-08-06T05:54:48;14.55;;;7.40;;
39486;SDS011;25173;50.430;18.926;2023-08-06T05:57:49;6.75;;;5.72;;
39486;SDS011;25173;50.430;18.926;2023-08-06T06:00:49;9.55;;;4.28;;
39486;SDS011;25173;50.430;18.926;2023-08-06T06:03:50;4.55;;;3.20;;
39486;SDS011;25173;50.430;18.926;2023-08-06T06:06:50;6.25;;;2.22;;
39486;SDS011;25173;50.430;18.926;2023-08-06T06:09:51;3.25;;;1.65;;
39486;SDS011;25173;50.430;18.926;2023-08-06T06:12:52;1.30;;;1.20;;
39486;SDS011;25173;50.430;18.926;2023-08-06T06:15:55;5.82;;;1.15;;
39486;SDS011;25173;50.430;18.926;2023-08-06T06:18:56;1.40;;;0.80;;
39486;SDS011;25173;50.430;18.926;2023-08-06T06:21:57;6.03;;;0.90;;
39486;SDS011;25173;50.430;18.926;2023-08-06T06:24:58;0.65;;;0.65;;
39486;SDS011;25173;50.430;18.926;2023-08-06T06:27:58;1.20;;;0.80;;
39486;SDS011;25173;50.430;18.926;2023-08-06T06:31:02;1.80;;;0.80;;
39486;SDS011;25173;50.430;18.926;2023-08-06T06:34:03;0.60;;;0.50;;
39486;SDS011;25173;50.430;18.926;2023-08-06T06:37:04;2.28;;;0.73;;
39486;SDS011;25173;50.430;18.926;2023-08-06T06:40:05;1.40;;;0.60;;
39486;SDS011;25173;50.430;18.926;2023-08-06T06:43:06;4.38;;;0.52;;
39486;SDS011;25173;50.430;18.926;2023-08-06T06:46:06;1.00;;;0.55;;
39486;SDS011;25173;50.430;18.926;2023-08-06T06:49:07;8.30;;;0.93;;
39486;SDS011;25173;50.430;18.926;2023-08-06T06:52:09;2.90;;;0.60;;
39486;SDS011;25173;50.430;18.926;2023-08-06T06:55:09;1.08;;;0.60;;
39486;SDS011;25173;50.430;18.926;2023-08-06T06:58:10;1.17;;;0.55;;
39486;SDS011;25173;50.430;18.926;2023-08-06T07:01:10;7.93;;;0.38;;
39486;SDS011;25173;50.430;18.926;2023-08-06T07:04:12;4.38;;;0.75;;
39486;SDS011;25173;50.430;18.926;2023-08-06T07:07:12;10.27;;;0.65;;
39486;SDS011;25173;50.430;18.926;2023-08-06T07:10:13;13.27;;;0.90;;
39486;SDS011;25173;50.430;18.926;2023-08-06T07:13:14;5.63;;;0.60;;
39486;SDS011;25173;50.430;18.926;2023-08-06T07:16:14;10.80;;;0.63;;
39486;SDS011;25173;50.430;18.926;2023-08-06T07:19:15;25.15;;;1.45;;
39486;SDS011;25173;50.430;18.926;2023-08-06T07:22:15;13.25;;;0.98;;
39486;SDS011;25173;50.430;18.926;2023-08-06T07:25:16;18.73;;;1.35;;
39486;SDS011;25173;50.430;18.926;2023-08-06T07:28:17;1.45;;;0.50;;
39486;SDS011;25173;50.430;18.926;2023-08-06T07:31:18;2.28;;;0.40;;
39486;SDS011;25173;50.430;18.926;2023-08-06T07:34:28;1.20;;;0.40;;
39486;SDS011;25173;50.430;18.926;2023-08-06T07:37:28;6.30;;;0.60;;
39486;SDS011;25173;50.430;18.926;2023-08-06T07:40:29;1.02;;;0.45;;
39486;SDS011;25173;50.430;18.926;2023-08-06T07:43:30;1.02;;;0.70;;
39486;SDS011;25173;50.430;18.926;2023-08-06T07:46:31;1.83;;;0.63;;
39486;SDS011;25173;50.430;18.926;2023-08-06T07:49:32;3.20;;;0.70;;
39486;SDS011;25173;50.430;18.926;2023-08-06T07:52:33;40.17;;;3.17;;
39486;SDS011;25173;50.430;18.926;2023-08-06T07:55:34;43.17;;;2.13;;
39486;SDS011;25173;50.430;18.926;2023-08-06T07:58:34;94.03;;;3.20;;
39486;SDS011;25173;50.430;18.926;2023-08-06T08:01:35;8.90;;;0.75;;
39486;SDS011;25173;50.430;18.926;2023-08-06T08:04:35;5.65;;;0.77;;
39486;SDS011;25173;50.430;18.926;2023-08-06T08:07:36;9.35;;;0.70;;
39486;SDS011;25173;50.430;18.926;2023-08-06T08:10:36;2.50;;;0.50;;
39486;SDS011;25173;50.430;18.926;2023-08-06T08:13:38;1.23;;;0.40;;
39486;SDS011;25173;50.430;18.926;2023-08-06T08:16:39;1.13;;;0.47;;
39486;SDS011;25173;50.430;18.926;2023-08-06T08:19:40;5.47;;;0.70;;
39486;SDS011;25173;50.430;18.926;2023-08-06T08:22:44;1.13;;;0.30;;
39486;SDS011;25173;50.430;18.926;2023-08-06T08:25:44;2.35;;;0.47;;
39486;SDS011;25173;50.430;18.926;2023-08-06T08:28:45;5.55;;;1.23;;
39486;SDS011;25173;50.430;18.926;2023-08-06T08:31:45;1.75;;;1.00;;
39486;SDS011;25173;50.430;18.926;2023-08-06T08:34:49;3.13;;;0.95;;
39486;SDS011;25173;50.430;18.926;2023-08-06T08:37:49;1.88;;;0.80;;
39486;SDS011;25173;50.430;18.926;2023-08-06T08:40:51;0.90;;;0.82;;
39486;SDS011;25173;50.430;18.926;2023-08-06T08:43:53;0.52;;;0.52;;
39486;SDS011;25173;50.430;18.926;2023-08-06T08:46:55;1.20;;;1.10;;
39486;SDS011;25173;50.430;18.926;2023-08-06T08:49:56;1.10;;;0.90;;
39486;SDS011;25173;50.430;18.926;2023-08-06T08:52:58;0.50;;;0.50;;
39486;SDS011;25173;50.430;18.926;2023-08-06T08:56:00;0.30;;;0.30;;
39486;SDS011;25173;50.430;18.926;2023-08-06T08:59:01;0.38;;;0.30;;
39486;SDS011;25173;50.430;18.926;2023-08-06T09:02:02;0.40;;;0.30;;
39486;SDS011;25173;50.430;18.926;2023-08-06T09:05:03;0.60;;;0.40;;
39486;SDS011;25173;50.430;18.926;2023-08-06T09:08:05;1.95;;;0.45;;
39486;SDS011;25173;50.430;18.926;2023-08-06T09:11:06;1.85;;;0.38;;
39486;SDS011;25173;50.430;18.926;2023-08-06T09:14:11;3.75;;;0.38;;
39486;SDS011;25173;50.430;18.926;2023-08-06T09:17:12;1.17;;;1.02;;
39486;SDS011;25173;50.430;18.926;2023-08-06T09:20:13;0.60;;;0.40;;
39486;SDS011;25173;50.430;18.926;2023-08-06T09:23:14;2.03;;;0.50;;
39486;SDS011;25173;50.430;18.926;2023-08-06T09:26:14;0.75;;;0.30;;
39486;SDS011;25173;50.430;18.926;2023-08-06T09:29:15;1.48;;;0.57;;
39486;SDS011;25173;50.430;18.926;2023-08-06T09:32:16;0.75;;;0.52;;
39486;SDS011;25173;50.430;18.926;2023-08-06T09:35:16;0.50;;;0.50;;
39486;SDS011;25173;50.430;18.926;2023-08-06T09:38:18;1.20;;;0.43;;
39486;SDS011;25173;50.430;18.926;2023-08-06T09:41:27;1.50;;;0.60;;
39486;SDS011;25173;50.430;18.926;2023-08-06T09:44:31;1.55;;;1.20;;
39486;SDS011;25173;50.430;18.926;2023-08-06T09:47:33;1.50;;;0.60;;
39486;SDS011;25173;50.430;18.926;2023-08-06T09:50:34;0.70;;;0.60;;
39486;SDS011;25173;50.430;18.926;2023-08-06T09:53:37;0.60;;;0.50;;
39486;SDS011;25173;50.430;18.926;2023-08-06T09:56:38;0.93;;;0.77;;
39486;SDS011;25173;50.430;18.926;2023-08-06T09:59:51;1.25;;;0.70;;
39486;SDS011;25173;50.430;18.926;2023-08-06T10:02:53;0.95;;;0.80;;
39486;SDS011;25173;50.430;18.926;2023-08-06T10:05:57;2.60;;;0.80;;
39486;SDS011;25173;50.430;18.926;2023-08-06T10:08:58;0.55;;;0.50;;
39486;SDS011;25173;50.430;18.926;2023-08-06T10:11:59;0.75;;;0.70;;
39486;SDS011;25173;50.430;18.926;2023-08-06T10:15:01;0.90;;;0.90;;
39486;SDS011;25173;50.430;18.926;2023-08-06T10:18:09;0.55;;;0.50;;
39486;SDS011;25173;50.430;18.926;2023-08-06T10:21:12;0.75;;;0.57;;
39486;SDS011;25173;50.430;18.926;2023-08-06T10:24:13;1.63;;;0.50;;
39486;SDS011;25173;50.430;18.926;2023-08-06T10:27:19;0.50;;;0.50;;
39486;SDS011;25173;50.430;18.926;2023-08-06T10:33:25;0.50;;;0.40;;
39486;SDS011;25173;50.430;18.926;2023-08-06T10:36:43;1.95;;;0.35;;
39486;SDS011;25173;50.430;18.926;2023-08-06T10:39:50;0.47;;;0.47;;
39486;SDS011;25173;50.430;18.926;2023-08-06T10:42:52;0.35;;;0.35;;
39486;SDS011;25173;50.430;18.926;2023-08-06T10:45:53;0.38;;;0.38;;
39486;SDS011;25173;50.430;18.926;2023-08-06T10:48:53;0.20;;;0.20;;
39486;SDS011;25173;50.430;18.926;2023-08-06T10:51:54;0.98;;;0.60;;
39486;SDS011;25173;50.430;18.926;2023-08-06T10:54:55;0.57;;;0.57;;
39486;SDS011;25173;50.430;18.926;2023-08-06T10:57:55;3.08;;;0.70;;
39486;SDS011;25173;50.430;18.926;2023-08-06T11:00:57;9.05;;;0.80;;
39486;SDS011;25173;50.430;18.926;2023-08-06T11:04:01;3.75;;;0.60;;
39486;SDS011;25173;50.430;18.926;2023-08-06T11:07:03;2.92;;;0.65;;
39486;SDS011;25173;50.430;18.926;2023-08-06T11:10:04;1.13;;;0.40;;
39486;SDS011;25173;50.430;18.926;2023-08-06T11:13:06;0.52;;;0.50;;
39486;SDS011;25173;50.430;18.926;2023-08-06T11:16:08;1.95;;;0.40;;
39486;SDS011;25173;50.430;18.926;2023-08-06T11:19:09;0.50;;;0.40;;
39486;SDS011;25173;50.430;18.926;2023-08-06T11:22:10;1.00;;;0.70;;
39486;SDS011;25173;50.430;18.926;2023-08-06T11:25:11;0.40;;;0.32;;
39486;SDS011;25173;50.430;18.926;2023-08-06T11:28:12;1.25;;;0.50;;
39486;SDS011;25173;50.430;18.926;2023-08-06T11:31:22;0.57;;;0.55;;
39486;SDS011;25173;50.430;18.926;2023-08-06T11:34:24;0.40;;;0.40;;
39486;SDS011;25173;50.430;18.926;2023-08-06T11:37:24;3.08;;;0.40;;
39486;SDS011;25173;50.430;18.926;2023-08-06T11:40:26;10.23;;;0.45;;
39486;SDS011;25173;50.430;18.926;2023-08-06T11:43:29;0.68;;;0.30;;
39486;SDS011;25173;50.430;18.926;2023-08-06T11:49:56;1.83;;;0.50;;
39486;SDS011;25173;50.430;18.926;2023-08-06T11:53:00;1.65;;;0.47;;
39486;SDS011;25173;50.430;18.926;2023-08-06T11:56:04;0.60;;;0.47;;
39486;SDS011;25173;50.430;18.926;2023-08-06T11:59:09;0.40;;;0.40;;
39486;SDS011;25173;50.430;18.926;2023-08-06T12:02:10;1.02;;;0.30;;
39486;SDS011;25173;50.430;18.926;2023-08-06T12:05:12;5.35;;;1.63;;
39486;SDS011;25173;50.430;18.926;2023-08-06T12:08:13;0.70;;;0.70;;
39486;SDS011;25173;50.430;18.926;2023-08-06T12:11:14;1.85;;;0.68;;
39486;SDS011;25173;50.430;18.926;2023-08-06T12:14:15;0.45;;;0.35;;
39486;SDS011;25173;50.430;18.926;2023-08-06T12:17:15;0.85;;;0.30;;
39486;SDS011;25173;50.430;18.926;2023-08-06T12:20:16;0.68;;;0.30;;
39486;SDS011;25173;50.430;18.926;2023-08-06T12:23:20;1.17;;;0.25;;
39486;SDS011;25173;50.430;18.926;2023-08-06T12:26:20;2.55;;;0.40;;
39486;SDS011;25173;50.430;18.926;2023-08-06T12:29:21;1.35;;;0.40;;
39486;SDS011;25173;50.430;18.926;2023-08-06T12:32:21;0.40;;;0.40;;
39486;SDS011;25173;50.430;18.926;2023-08-06T12:35:22;0.50;;;0.20;;
39486;SDS011;25173;50.430;18.926;2023-08-06T12:38:23;1.70;;;0.40;;
39486;SDS011;25173;50.430;18.926;2023-08-06T12:41:24;0.73;;;0.70;;
39486;SDS011;25173;50.430;18.926;2023-08-06T12:44:24;0.38;;;0.38;;
39486;SDS011;25173;50.430;18.926;2023-08-06T12:47:25;3.70;;;0.50;;
39486;SDS011;25173;50.430;18.926;2023-08-06T12:50:26;0.40;;;0.40;;
39486;SDS011;25173;50.430;18.926;2023-08-06T12:53:26;0.38;;;0.32;;
39486;SDS011;25173;50.430;18.926;2023-08-06T12:56:27;0.60;;;0.50;;
39486;SDS011;25173;50.430;18.926;2023-08-06T12:59:28;0.63;;;0.30;;
39486;SDS011;25173;50.430;18.926;2023-08-06T13:02:28;0.32;;;0.32;;
39486;SDS011;25173;50.430;18.926;2023-08-06T13:05:30;0.93;;;0.40;;
39486;SDS011;25173;50.430;18.926;2023-08-06T13:08:30;1.55;;;0.90;;
39486;SDS011;25173;50.430;18.926;2023-08-06T13:11:31;0.70;;;0.70;;
39486;SDS011;25173;50.430;18.926;2023-08-06T13:14:31;0.22;;;0.22;;
39486;SDS011;25173;50.430;18.926;2023-08-06T13:17:32;3.47;;;0.47;;
39486;SDS011;25173;50.430;18.926;2023-08-06T13:20:33;0.30;;;0.30;;
39486;SDS011;25173;50.430;18.926;2023-08-06T13:23:34;0.35;;;0.35;;
39486;SDS011;25173;50.430;18.926;2023-08-06T13:26:35;0.85;;;0.85;;
39486;SDS011;25173;50.430;18.926;2023-08-06T13:29:35;0.32;;;0.30;;
39486;SDS011;25173;50.430;18.926;2023-08-06T13:32:36;0.40;;;0.40;;
39486;SDS011;25173;50.430;18.926;2023-08-06T13:35:37;1.55;;;0.60;;
39486;SDS011;25173;50.430;18.926;2023-08-06T13:38:38;0.90;;;0.40;;
39486;SDS011;25173;50.430;18.926;2023-08-06T13:41:39;0.20;;;0.20;;
39486;SDS011;25173;50.430;18.926;2023-08-06T13:44:39;0.43;;;0.38;;
39486;SDS011;25173;50.430;18.926;2023-08-06T13:47:40;0.50;;;0.50;;
39486;SDS011;25173;50.430;18.926;2023-08-06T13:50:41;0.50;;;0.50;;
39486;SDS011;25173;50.430;18.926;2023-08-06T13:53:42;0.82;;;0.50;;
39486;SDS011;25173;50.430;18.926;2023-08-06T13:56:43;1.95;;;0.45;;
39486;SDS011;25173;50.430;18.926;2023-08-06T13:59:43;1.15;;;0.32;;
39486;SDS011;25173;50.430;18.926;2023-08-06T14:02:44;0.50;;;0.50;;
39486;SDS011;25173;50.430;18.926;2023-08-06T14:05:44;0.40;;;0.30;;
39486;SDS011;25173;50.430;18.926;2023-08-06T14:08:45;0.30;;;0.30;;
39486;SDS011;25173;50.430;18.926;2023-08-06T14:11:46;0.30;;;0.30;;
39486;SDS011;25173;50.430;18.926;2023-08-06T14:14:46;0.65;;;0.43;;
39486;SDS011;25173;50.430;18.926;2023-08-06T14:17:47;0.30;;;0.28;;
39486;SDS011;25173;50.430;18.926;2023-08-06T14:20:47;1.42;;;0.60;;
39486;SDS011;25173;50.430;18.926;2023-08-06T14:23:48;0.40;;;0.40;;
39486;SDS011;25173;50.430;18.926;2023-08-06T14:27:01;0.70;;;0.50;;
39486;SDS011;25173;50.430;18.926;2023-08-06T14:30:01;1.58;;;0.50;;
39486;SDS011;25173;50.430;18.926;2023-08-06T14:33:03;0.47;;;0.47;;
39486;SDS011;25173;50.430;18.926;2023-08-06T14:36:04;0.40;;;0.30;;
39486;SDS011;25173;50.430;18.926;2023-08-06T14:39:04;1.60;;;0.93;;
39486;SDS011;25173;50.430;18.926;2023-08-06T14:42:05;0.50;;;0.50;;
39486;SDS011;25173;50.430;18.926;2023-08-06T14:45:05;1.10;;;0.50;;
39486;SDS011;25173;50.430;18.926;2023-08-06T14:48:09;0.57;;;0.43;;
39486;SDS011;25173;50.430;18.926;2023-08-06T14:51:10;0.50;;;0.50;;
39486;SDS011;25173;50.430;18.926;2023-08-06T14:54:11;1.23;;;0.60;;
39486;SDS011;25173;50.430;18.926;2023-08-06T14:57:11;0.50;;;0.40;;
39486;SDS011;25173;50.430;18.926;2023-08-06T15:00:13;0.63;;;0.60;;
39486;SDS011;25173;50.430;18.926;2023-08-06T15:03:14;0.98;;;0.68;;
39486;SDS011;25173;50.430;18.926;2023-08-06T15:06:14;0.90;;;0.60;;
39486;SDS011;25173;50.430;18.926;2023-08-06T15:09:15;0.40;;;0.40;;
39486;SDS011;25173;50.430;18.926;2023-08-06T15:12:15;0.85;;;0.68;;
39486;SDS011;25173;50.430;18.926;2023-08-06T15:15:17;0.80;;;0.50;;
39486;SDS011;25173;50.430;18.926;2023-08-06T15:18:18;0.80;;;0.65;;
39486;SDS011;25173;50.430;18.926;2023-08-06T15:21:19;0.95;;;0.65;;
39486;SDS011;25173;50.430;18.926;2023-08-06T15:24:20;1.10;;;0.50;;
39486;SDS011;25173;50.430;18.926;2023-08-06T15:27:21;2.53;;;0.90;;
39486;SDS011;25173;50.430;18.926;2023-08-06T15:30:22;0.77;;;0.77;;
39486;SDS011;25173;50.430;18.926;2023-08-06T15:33:22;0.70;;;0.70;;
39486;SDS011;25173;50.430;18.926;2023-08-06T15:36:23;1.55;;;0.88;;
39486;SDS011;25173;50.430;18.926;2023-08-06T15:39:23;2.90;;;0.70;;
39486;SDS011;25173;50.430;18.926;2023-08-06T15:42:24;0.63;;;0.60;;
39486;SDS011;25173;50.430;18.926;2023-08-06T15:45:24;2.92;;;0.80;;
39486;SDS011;25173;50.430;18.926;2023-08-06T15:48:25;2.60;;;0.70;;
39486;SDS011;25173;50.430;18.926;2023-08-06T15:51:26;1.58;;;0.80;;
39486;SDS011;25173;50.430;18.926;2023-08-06T15:54:26;1.60;;;0.60;;
39486;SDS011;25173;50.430;18.926;2023-08-06T15:57:27;0.93;;;0.82;;
39486;SDS011;25173;50.430;18.926;2023-08-06T16:00:27;2.05;;;1.02;;
39486;SDS011;25173;50.430;18.926;2023-08-06T16:03:28;0.85;;;0.60;;
39486;SDS011;25173;50.430;18.926;2023-08-06T16:06:29;0.75;;;0.68;;
39486;SDS011;25173;50.430;18.926;2023-08-06T16:09:29;2.70;;;1.00;;
39486;SDS011;25173;50.430;18.926;2023-08-06T16:12:30;1.00;;;0.90;;
39486;SDS011;25173;50.430;18.926;2023-08-06T16:15:30;5.13;;;0.93;;
39486;SDS011;25173;50.430;18.926;2023-08-06T16:18:31;0.60;;;0.50;;
39486;SDS011;25173;50.430;18.926;2023-08-06T16:21:31;0.70;;;0.70;;
39486;SDS011;25173;50.430;18.926;2023-08-06T16:24:32;3.17;;;1.23;;
39486;SDS011;25173;50.430;18.926;2023-08-06T16:27:32;1.70;;;0.88;;
39486;SDS011;25173;50.430;18.926;2023-08-06T16:30:33;0.70;;;0.70;;
39486;SDS011;25173;50.430;18.926;2023-08-06T16:33:34;0.63;;;0.60;;
39486;SDS011;25173;50.430;18.926;2023-08-06T16:36:34;0.90;;;0.77;;
39486;SDS011;25173;50.430;18.926;2023-08-06T16:39:35;2.25;;;0.65;;
39486;SDS011;25173;50.430;18.926;2023-08-06T16:42:35;1.48;;;0.73;;
39486;SDS011;25173;50.430;18.926;2023-08-06T16:45:36;0.88;;;0.70;;
39486;SDS011;25173;50.430;18.926;2023-08-06T16:48:38;2.35;;;0.60;;
39486;SDS011;25173;50.430;18.926;2023-08-06T16:51:39;2.65;;;0.90;;
39486;SDS011;25173;50.430;18.926;2023-08-06T16:54:39;0.70;;;0.40;;
39486;SDS011;25173;50.430;18.926;2023-08-06T16:57:40;0.90;;;0.80;;
39486;SDS011;25173;50.430;18.926;2023-08-06T17:00:40;2.25;;;0.77;;
39486;SDS011;25173;50.430;18.926;2023-08-06T17:03:44;1.88;;;0.68;;
39486;SDS011;25173;50.430;18.926;2023-08-06T17:06:44;0.57;;;0.57;;
39486;SDS011;25173;50.430;18.926;2023-08-06T17:09:47;0.90;;;0.80;;
39486;SDS011;25173;50.430;18.926;2023-08-06T17:12:47;0.50;;;0.50;;
39486;SDS011;25173;50.430;18.926;2023-08-06T17:15:50;4.38;;;2.13;;
39486;SDS011;25173;50.430;18.926;2023-08-06T17:18:50;0.70;;;0.70;;
39486;SDS011;25173;50.430;18.926;2023-08-06T17:21:51;0.77;;;0.68;;
39486;SDS011;25173;50.430;18.926;2023-08-06T17:24:51;0.70;;;0.68;;
39486;SDS011;25173;50.430;18.926;2023-08-06T17:27:52;1.13;;;1.02;;
39486;SDS011;25173;50.430;18.926;2023-08-06T17:30:52;1.65;;;1.20;;
39486;SDS011;25173;50.430;18.926;2023-08-06T17:33:53;1.33;;;0.90;;
39486;SDS011;25173;50.430;18.926;2023-08-06T17:36:53;3.35;;;0.93;;
39486;SDS011;25173;50.430;18.926;2023-08-06T17:39:54;1.92;;;1.17;;
39486;SDS011;25173;50.430;18.926;2023-08-06T17:42:55;2.15;;;1.15;;
39486;SDS011;25173;50.430;18.926;2023-08-06T17:45:55;0.85;;;0.85;;
39486;SDS011;25173;50.430;18.926;2023-08-06T17:48:56;1.30;;;1.00;;
39486;SDS011;25173;50.430;18.926;2023-08-06T17:51:56;1.30;;;0.60;;
39486;SDS011;25173;50.430;18.926;2023-08-06T17:54:57;0.60;;;0.60;;
39486;SDS011;25173;50.430;18.926;2023-08-06T17:57:57;1.10;;;0.63;;
39486;SDS011;25173;50.430;18.926;2023-08-06T18:00:59;1.25;;;0.77;;